createdAt,value
2023-04-17T00:02:11.547Z,99409.88
2023-04-17T00:04:41.735Z,99408.50
2023-04-17T00:07:12.717Z,99407.50
2023-04-17T00:09:41.444Z,99413.53
2023-04-17T00:12:10.051Z,99417.53
2023-04-17T00:14:38.614Z,99411.97
2023-04-17T00:17:07.287Z,99418.59
2023-04-17T00:19:35.909Z,99413.75
2023-04-17T00:22:06.004Z,99413.75
2023-04-17T00:24:34.668Z,99408.75
2023-04-17T00:27:03.301Z,99407.56
2023-04-17T00:29:32.692Z,99412.13
2023-04-17T00:32:01.389Z,99412.34
2023-04-17T00:34:30.110Z,99403.72
2023-04-17T00:36:59.142Z,99404.88
2023-04-17T00:39:29.081Z,99398.25
2023-04-17T00:41:58.428Z,99404.28
2023-04-17T00:44:27.448Z,99395.63
2023-04-17T00:46:56.256Z,99398.69
2023-04-17T00:49:25.766Z,99398.03
2023-04-17T00:51:54.611Z,99394.66
2023-04-17T00:54:24.224Z,99394.06
2023-04-17T00:56:57.491Z,99396.69
2023-04-17T00:59:26.346Z,99395.47
2023-04-17T01:01:55.068Z,99383.22
2023-04-17T01:04:23.998Z,99388.00
2023-04-17T01:06:53.665Z,99385.66
2023-04-17T01:09:22.249Z,99384.66
2023-04-17T01:11:50.916Z,99385.84
2023-04-17T01:14:20.829Z,99380.81
2023-04-17T01:16:50.412Z,99382.59
2023-04-17T01:19:19.577Z,99382.44
2023-04-17T01:21:48.228Z,99389.88
2023-04-17T01:24:18.246Z,99388.88
2023-04-17T01:26:46.916Z,99387.47
2023-04-17T01:29:15.516Z,99397.63
2023-04-17T01:31:44.069Z,99387.22
2023-04-17T01:34:12.698Z,99384.59
2023-04-17T01:36:41.366Z,99387.59
2023-04-17T01:39:10.162Z,99381.19
2023-04-17T01:41:40.306Z,99393.22
2023-04-17T01:44:08.936Z,99382.78
2023-04-17T01:46:37.650Z,99379.38
2023-04-17T01:49:06.565Z,99379.19
2023-04-17T01:51:35.288Z,99381.38
2023-04-17T01:54:03.934Z,99376.78
2023-04-17T01:56:32.537Z,99377.56
2023-04-17T01:59:02.462Z,99376.97
2023-04-17T02:01:31.798Z,99375.97
2023-04-17T02:04:00.734Z,99370.78
2023-04-17T02:06:29.393Z,99377.16
2023-04-17T02:08:58.086Z,99376.53
2023-04-17T02:11:27.263Z,99371.31
2023-04-17T02:13:55.902Z,99377.09
2023-04-17T02:16:25.891Z,99371.88
2023-04-17T02:18:54.549Z,99375.13
2023-04-17T02:21:23.126Z,99371.28
2023-04-17T02:23:51.751Z,99374.50
2023-04-17T02:26:20.871Z,99378.28
2023-04-17T02:28:49.533Z,99384.69
2023-04-17T02:31:18.227Z,99380.28
2023-04-17T02:33:48.235Z,99369.84
2023-04-17T02:36:17.087Z,99389.28
2023-04-17T02:38:45.906Z,99390.25
2023-04-17T02:41:14.505Z,99379.81
2023-04-17T02:43:43.123Z,99385.41
2023-04-17T02:46:12.881Z,99384.44
2023-04-17T02:48:41.511Z,99385.22
2023-04-17T02:51:11.737Z,99381.81
2023-04-17T02:53:41.119Z,99387.03
2023-04-17T02:56:09.703Z,99384.63
2023-04-17T02:58:38.337Z,99384.81
2023-04-17T03:01:07.025Z,99389.19
2023-04-17T03:03:38.707Z,99382.22
2023-04-17T03:06:08.180Z,99391.81
2023-04-17T03:08:38.897Z,99385.22
2023-04-17T03:11:07.591Z,99383.81
2023-04-17T03:13:37.398Z,99380.22
2023-04-17T03:16:07.050Z,99384.00
2023-04-17T03:18:36.357Z,99377.19
2023-04-17T03:21:04.924Z,99382.22
2023-04-17T03:23:33.690Z,99383.81
2023-04-17T03:26:03.634Z,99380.03
2023-04-17T03:28:32.405Z,99381.19
2023-04-17T03:31:01.007Z,99384.81
2023-04-17T03:33:29.624Z,99383.19
2023-04-17T03:35:58.205Z,99390.63
2023-04-17T03:38:26.841Z,99392.88
2023-04-17T03:40:55.533Z,99392.06
2023-04-17T03:43:25.527Z,99384.63
2023-04-17T03:45:54.157Z,99397.84
2023-04-17T03:48:22.763Z,99399.09
2023-04-17T03:50:52.436Z,99402.69
2023-04-17T03:53:21.250Z,99403.66
2023-04-17T03:55:50.059Z,99399.44
2023-04-17T03:58:18.952Z,99400.44
2023-04-17T04:00:50.065Z,99404.66
2023-04-17T04:03:18.944Z,99398.44
2023-04-17T04:05:47.637Z,99401.06
2023-04-17T04:08:16.220Z,99402.22
2023-04-17T04:10:45.373Z,99401.44
2023-04-17T04:13:14.024Z,99398.22
2023-04-17T04:15:42.729Z,99400.19
2023-04-17T04:18:12.813Z,99409.00
2023-04-17T04:20:41.772Z,99405.03
2023-04-17T04:23:10.421Z,99403.44
2023-04-17T04:25:41.679Z,99410.44
2023-04-17T04:28:10.597Z,99405.84
2023-04-17T04:30:39.612Z,99411.25
2023-04-17T04:33:08.310Z,99413.66
2023-04-17T04:35:38.543Z,99404.03
2023-04-17T04:38:07.421Z,99405.84
2023-04-17T04:40:38.173Z,99413.84
2023-04-17T04:43:07.076Z,99410.25
2023-04-17T04:45:35.943Z,99414.00
2023-04-17T04:48:04.639Z,99413.84
2023-04-17T04:50:33.314Z,99413.84
2023-04-17T04:53:03.272Z,99418.06
2023-04-17T04:55:31.930Z,99423.91
2023-04-17T04:58:00.541Z,99422.09
2023-04-17T05:00:29.446Z,99423.72
2023-04-17T05:02:58.487Z,99431.09
2023-04-17T05:05:27.284Z,99428.47
2023-04-17T05:07:55.855Z,99426.88
2023-04-17T05:10:25.913Z,99434.72
2023-04-17T05:12:54.512Z,99431.91
2023-04-17T05:15:23.207Z,99431.28
2023-04-17T05:17:51.900Z,99435.31
2023-04-17T05:20:20.578Z,99437.13
2023-04-17T05:22:49.465Z,99431.53
2023-04-17T05:25:19.628Z,99441.97
2023-04-17T05:27:49.647Z,99432.78
2023-04-17T05:30:18.274Z,99442.56
2023-04-17T05:32:48.495Z,99439.34
2023-04-17T05:35:17.242Z,99447.38
2023-04-17T05:37:45.900Z,99433.31
2023-04-17T05:40:14.532Z,99436.75
2023-04-17T05:42:43.190Z,99449.97
2023-04-17T05:45:15.620Z,99444.19
2023-04-17T05:47:44.253Z,99449.84
2023-04-17T05:50:12.931Z,99447.06
2023-04-17T05:52:41.690Z,99442.66
2023-04-17T05:55:10.755Z,99450.09
2023-04-17T05:57:39.391Z,99449.22
2023-04-17T06:00:12.924Z,99449.22
2023-04-17T06:02:43.832Z,99442.03
2023-04-17T06:05:12.947Z,99447.47
2023-04-17T06:07:41.950Z,99446.13
2023-04-17T06:10:11.123Z,99443.69
2023-04-17T06:12:40.014Z,99452.97
2023-04-17T06:15:10.048Z,99456.56
2023-04-17T06:17:38.795Z,99453.75
2023-04-17T06:20:10.489Z,99452.13
2023-04-17T06:22:39.751Z,99452.56
2023-04-17T06:25:09.331Z,99461.84
2023-04-17T06:27:37.911Z,99459.59
2023-04-17T06:30:07.834Z,99466.78
2023-04-17T06:32:36.582Z,99462.22
2023-04-17T06:35:05.742Z,99461.66
2023-04-17T06:37:35.789Z,99453.06
2023-04-17T06:40:04.888Z,99469.16
2023-04-17T06:42:35.005Z,99466.38
2023-04-17T06:45:03.741Z,99467.53
2023-04-17T06:47:32.405Z,99466.75
2023-04-17T06:50:01.157Z,99469.16
2023-04-17T06:52:29.822Z,99470.34
2023-04-17T06:54:59.973Z,99468.34
2023-04-17T06:57:28.562Z,99464.13
2023-04-17T06:59:57.208Z,99467.53
2023-04-17T07:02:25.952Z,99476.78
2023-04-17T07:04:54.892Z,99478.38
2023-04-17T07:07:23.746Z,99488.47
2023-04-17T07:09:52.398Z,99480.75
2023-04-17T07:12:22.762Z,99479.13
2023-04-17T07:14:51.883Z,99478.75
2023-04-17T07:17:20.518Z,99481.00
2023-04-17T07:19:49.554Z,99483.88
2023-04-17T07:22:18.155Z,99491.53
2023-04-17T07:24:46.777Z,99487.38
2023-04-17T07:27:15.716Z,99488.53
2023-04-17T07:29:46.779Z,99494.97
2023-04-17T07:32:16.096Z,99490.06
2023-04-17T07:34:44.685Z,99495.94
2023-04-17T07:37:14.992Z,99493.69
2023-04-17T07:39:43.765Z,99496.56
2023-04-17T07:42:12.433Z,99494.19
2023-04-17T07:44:41.143Z,99498.78
2023-04-17T07:47:11.366Z,99498.25
2023-04-17T07:49:40.586Z,99501.25
2023-04-17T07:52:09.333Z,99497.28
2023-04-17T07:54:38.154Z,99497.94
2023-04-17T07:57:08.272Z,99502.09
2023-04-17T07:59:37.612Z,99501.06
2023-04-17T08:02:06.559Z,99497.28
2023-04-17T08:04:37.681Z,99501.94
2023-04-17T08:07:06.891Z,99511.97
2023-04-17T08:09:35.532Z,99508.53
2023-04-17T08:12:04.263Z,99502.97
2023-04-17T08:14:32.988Z,99503.00
2023-04-17T08:17:01.945Z,99510.28
2023-04-17T08:19:30.781Z,99507.09
2023-04-17T08:22:04.391Z,99510.94
2023-04-17T08:24:33.197Z,99510.94
2023-04-17T08:27:01.906Z,99518.53
2023-04-17T08:29:30.632Z,99520.72
2023-04-17T08:32:13.170Z,99523.34
2023-04-17T08:34:43.281Z,99518.97
2023-04-17T08:37:13.500Z,99516.34
2023-04-17T08:39:42.134Z,99519.44
2023-04-17T08:42:16.475Z,99520.88
2023-04-17T08:44:46.391Z,99527.47
2023-04-17T08:47:19.553Z,99523.09
2023-04-17T08:49:50.364Z,99527.31
2023-04-17T08:52:20.471Z,99520.09
2023-04-17T08:54:51.355Z,99530.34
2023-04-17T08:57:20.355Z,99534.00
2023-04-17T08:59:48.970Z,99527.78
2023-04-17T09:02:18.039Z,99531.38
2023-04-17T09:04:48.416Z,99523.16
2023-04-17T09:07:17.445Z,99532.00
2023-04-17T09:09:51.437Z,99530.41
2023-04-17T09:12:20.691Z,99531.00
2023-04-17T09:14:49.463Z,99524.06
2023-04-17T09:17:19.438Z,99526.75
2023-04-17T09:20:07.691Z,99526.38
2023-04-17T09:22:37.677Z,99531.44
2023-04-17T09:25:16.905Z,99530.66
2023-04-17T09:27:45.664Z,99528.91
2023-04-17T09:30:14.719Z,99529.16
2023-04-17T09:32:43.445Z,99531.78
2023-04-17T09:35:12.269Z,99530.19
2023-04-17T09:37:49.844Z,99532.81
2023-04-17T09:40:20.845Z,99530.63
2023-04-17T09:42:57.631Z,99531.81
2023-04-17T09:45:28.173Z,99529.06
2023-04-17T09:47:56.888Z,99534.72
2023-04-17T09:50:25.794Z,99533.38
2023-04-17T09:52:55.910Z,99525.75
2023-04-17T09:55:26.748Z,99539.25
2023-04-17T09:57:56.463Z,99531.81
2023-04-17T10:00:26.987Z,99534.03
2023-04-17T10:02:57.502Z,99539.25
2023-04-17T10:05:27.570Z,99530.63
2023-04-17T10:07:56.792Z,99539.28
2023-04-17T10:10:30.221Z,99537.28
2023-04-17T10:13:00.591Z,99533.84
2023-04-17T10:15:29.639Z,99530.41
2023-04-17T10:18:19.679Z,99527.56
2023-04-17T10:20:48.502Z,99527.75
2023-04-17T10:23:33.811Z,99527.56
2023-04-17T10:26:37.916Z,99528.16
2023-04-17T10:29:08.189Z,99524.72
2023-04-17T10:32:16.931Z,99521.91
2023-04-17T10:34:46.314Z,99524.28
2023-04-17T10:37:16.125Z,99523.88
2023-04-17T10:40:07.255Z,99521.47
2023-04-17T10:42:36.072Z,99515.00
2023-04-17T10:45:19.284Z,99509.94
2023-04-17T10:47:59.475Z,99508.56
2023-04-17T10:50:29.357Z,99509.34
2023-04-17T10:52:57.935Z,99512.59
2023-04-17T10:55:27.767Z,99502.94
2023-04-17T10:57:59.398Z,99510.19
2023-04-17T11:00:38.161Z,99507.81
2023-04-17T11:03:07.698Z,99499.56
2023-04-17T11:05:36.586Z,99498.59
2023-04-17T11:08:05.420Z,99504.28
2023-04-17T11:10:36.495Z,99503.06
2023-04-17T11:13:05.471Z,99494.03
2023-04-17T11:15:36.607Z,99498.28
2023-04-17T11:18:05.451Z,99493.66
2023-04-17T11:20:37.480Z,99491.03
2023-04-17T11:23:07.318Z,99491.03
2023-04-17T11:25:37.179Z,99484.63
2023-04-17T11:28:07.677Z,99483.44
2023-04-17T11:30:40.578Z,99483.25
2023-04-17T11:33:09.928Z,99479.25
2023-04-17T11:35:40.310Z,99476.25
2023-04-17T11:38:17.662Z,99466.19
2023-04-17T11:40:48.575Z,99472.81
2023-04-17T11:43:17.400Z,99467.59
2023-04-17T11:45:48.591Z,99473.22
2023-04-17T11:48:19.801Z,99475.25
2023-04-17T11:50:48.489Z,99469.78
2023-04-17T11:53:18.497Z,99466.91
2023-04-17T11:55:47.805Z,99473.53
2023-04-17T11:58:16.702Z,99476.53
2023-04-17T12:00:47.021Z,99475.47
2023-04-17T12:03:36.341Z,99477.28
2023-04-17T12:06:06.532Z,99463.88
2023-04-17T12:08:44.510Z,99471.88
2023-04-17T12:11:34.476Z,99474.63
2023-04-17T12:14:05.079Z,99470.16
2023-04-17T12:16:35.153Z,99471.00
2023-04-17T12:19:03.860Z,99473.75
2023-04-17T12:21:32.593Z,99471.38
2023-04-17T12:24:01.238Z,99471.88
2023-04-17T12:26:29.922Z,99474.94
2023-04-17T12:28:58.578Z,99475.69
2023-04-17T12:31:27.286Z,99474.13
2023-04-17T12:33:57.370Z,99479.84
2023-04-17T12:36:26.044Z,99472.97
2023-04-17T12:38:54.773Z,99480.28
2023-04-17T12:41:25.402Z,99484.72
2023-04-17T12:43:54.509Z,99487.09
2023-04-17T12:46:23.179Z,99478.66
2023-04-17T12:48:58.211Z,99482.88
2023-04-17T12:51:28.841Z,99486.91
2023-04-17T12:53:58.057Z,99481.28
2023-04-17T12:56:26.738Z,99472.41
2023-04-17T12:58:55.611Z,99487.84
2023-04-17T13:01:25.363Z,99482.25
2023-04-17T13:03:54.313Z,99484.09
2023-04-17T13:06:23.293Z,99469.00
2023-04-17T13:08:53.693Z,99476.84
2023-04-17T13:11:22.638Z,99475.06
2023-04-17T13:13:51.355Z,99473.84
2023-04-17T13:16:20.097Z,99468.22
2023-04-17T13:18:48.769Z,99464.94
2023-04-17T13:21:17.398Z,99462.53
2023-04-17T13:23:45.980Z,99452.03
2023-04-17T13:26:16.012Z,99457.88
2023-04-17T13:28:44.714Z,99450.03
2023-04-17T13:31:14.193Z,99458.47
2023-04-17T13:33:42.996Z,99444.72
2023-04-17T13:36:11.902Z,99444.50
2023-04-17T13:38:40.541Z,99433.81
2023-04-17T13:41:09.163Z,99438.00
2023-04-17T13:43:39.205Z,99444.03
2023-04-17T13:46:09.144Z,99440.75
2023-04-17T13:48:37.979Z,99435.78
2023-04-17T13:51:06.876Z,99435.16
2023-04-17T13:53:35.522Z,99439.41
2023-04-17T13:56:04.411Z,99437.88
2023-04-17T13:58:34.470Z,99438.50
2023-04-17T14:01:04.579Z,99445.78
2023-04-17T14:03:33.577Z,99442.75
2023-04-17T14:06:02.487Z,99439.13
2023-04-17T14:08:31.127Z,99433.53
2023-04-17T14:10:59.827Z,99435.53
2023-04-17T14:13:28.598Z,99430.34
2023-04-17T14:15:57.619Z,99430.75
2023-04-17T14:18:28.492Z,99423.50
2023-04-17T14:20:57.176Z,99433.16
2023-04-17T14:23:25.807Z,99438.81
2023-04-17T14:25:54.541Z,99432.56
2023-04-17T14:28:24.054Z,99441.00
2023-04-17T14:30:52.712Z,99438.38
2023-04-17T14:33:21.995Z,99437.19
2023-04-17T14:35:53.296Z,99442.63
2023-04-17T14:38:22.011Z,99439.19
2023-04-17T14:40:50.764Z,99435.34
2023-04-17T14:43:19.373Z,99435.78
2023-04-17T14:45:48.058Z,99422.72
2023-04-17T14:48:17.131Z,99431.34
2023-04-17T14:50:45.838Z,99420.69
2023-04-17T14:53:16.046Z,99416.66
2023-04-17T14:55:44.684Z,99413.22
2023-04-17T14:58:13.446Z,99420.66
2023-04-17T15:00:42.097Z,99425.88
2023-04-17T15:03:10.947Z,99415.81
2023-04-17T15:05:39.810Z,99418.81
2023-04-17T15:08:08.534Z,99414.78
2023-04-17T15:10:50.091Z,99423.06
2023-04-17T15:13:19.703Z,99418.59
2023-04-17T15:15:48.341Z,99412.53
2023-04-17T15:18:16.972Z,99415.94
2023-04-17T15:20:46.404Z,99412.53
2023-04-17T15:23:15.447Z,99414.94
2023-04-17T15:25:45.705Z,99416.16
2023-04-17T15:28:14.388Z,99413.72
2023-04-17T15:30:43.073Z,99416.34
2023-04-17T15:33:12.294Z,99423.44
2023-04-17T15:35:41.022Z,99413.38
2023-04-17T15:38:09.779Z,99414.78
2023-04-17T15:40:38.453Z,99425.47
2023-04-17T15:43:10.553Z,99418.59
2023-04-17T15:45:39.325Z,99421.59
2023-04-17T15:48:08.008Z,99416.19
2023-04-17T15:50:36.757Z,99418.38
2023-04-17T15:53:05.422Z,99420.81
2023-04-17T15:55:36.291Z,99426.84
2023-04-17T15:58:05.020Z,99425.63
2023-04-17T16:00:35.012Z,99425.81
2023-04-17T16:03:03.875Z,99419.38
2023-04-17T16:05:32.651Z,99428.25
2023-04-17T16:08:02.180Z,99428.66
2023-04-17T16:10:31.080Z,99425.66
2023-04-17T16:12:59.791Z,99419.38
2023-04-17T16:15:28.789Z,99432.50
2023-04-17T16:17:58.838Z,99427.25
2023-04-17T16:20:27.598Z,99423.06
2023-04-17T16:22:56.297Z,99429.88
2023-04-17T16:25:25.284Z,99428.72
2023-04-17T16:27:53.884Z,99428.09
2023-04-17T16:30:23.165Z,99427.88
2023-04-17T16:32:51.830Z,99423.88
2023-04-17T16:35:22.108Z,99423.69
2023-04-17T16:37:50.759Z,99436.56
2023-04-17T16:40:19.777Z,99425.09
2023-04-17T16:42:48.491Z,99429.53
2023-04-17T16:45:17.156Z,99429.53
2023-04-17T16:47:46.084Z,99426.34
2023-04-17T16:50:14.865Z,99425.91
2023-04-17T16:52:44.978Z,99431.16
2023-04-17T16:55:13.783Z,99433.34
2023-04-17T16:57:43.830Z,99426.72
2023-04-17T17:00:13.828Z,99440.81
2023-04-17T17:02:42.619Z,99438.00
2023-04-17T17:05:11.527Z,99427.75
2023-04-17T17:07:40.334Z,99441.03
2023-04-17T17:10:11.347Z,99434.38
2023-04-17T17:12:40.016Z,99434.38
2023-04-17T17:15:09.049Z,99437.41
2023-04-17T17:17:37.729Z,99436.41
2023-04-17T17:20:08.048Z,99443.66
2023-04-17T17:22:36.649Z,99444.44
2023-04-17T17:25:06.135Z,99448.25
2023-04-17T17:27:36.108Z,99452.31
2023-04-17T17:30:05.255Z,99459.97
2023-04-17T17:32:33.942Z,99453.91
2023-04-17T17:35:02.605Z,99460.16
2023-04-17T17:37:31.313Z,99458.75
2023-04-17T17:40:00.032Z,99456.53
2023-04-17T17:42:28.649Z,99460.34
2023-04-17T17:44:58.661Z,99461.75
2023-04-17T17:47:27.508Z,99470.75
2023-04-17T17:49:56.283Z,99468.97
2023-04-17T17:52:24.940Z,99465.53
2023-04-17T17:54:53.743Z,99470.16
2023-04-17T17:57:22.433Z,99471.41
2023-04-17T17:59:51.164Z,99468.78
2023-04-17T18:02:21.368Z,99468.63
2023-04-17T18:04:50.404Z,99470.19
2023-04-17T18:07:19.651Z,99468.41
2023-04-17T18:09:50.584Z,99484.88
2023-04-17T18:12:19.442Z,99476.00
2023-04-17T18:14:48.084Z,99475.41
2023-04-17T18:17:16.749Z,99479.63
2023-04-17T18:19:46.756Z,99480.22
2023-04-17T18:22:15.846Z,99480.63
2023-04-17T18:24:44.447Z,99480.63
2023-04-17T18:27:13.158Z,99487.25
2023-04-17T18:29:41.800Z,99485.19
2023-04-17T18:32:10.781Z,99489.84
2023-04-17T18:34:39.462Z,99493.88
2023-04-17T18:37:09.563Z,99491.47
2023-04-17T18:39:38.231Z,99496.28
2023-04-17T18:42:07.036Z,99487.03
2023-04-17T18:44:35.782Z,99493.25
2023-04-17T18:47:04.728Z,99498.47
2023-04-17T18:49:33.452Z,99492.66
2023-04-17T18:52:03.264Z,99495.03
2023-04-17T18:54:33.816Z,99499.03
2023-04-17T18:57:02.543Z,99499.44
2023-04-17T18:59:31.350Z,99503.69
2023-04-17T19:01:59.943Z,99503.44
2023-04-17T19:04:30.310Z,99506.06
2023-04-17T19:06:59.082Z,99499.59
2023-04-17T19:09:27.767Z,99505.88
2023-04-17T19:11:58.457Z,99502.81
2023-04-17T19:14:28.446Z,99514.06
2023-04-17T19:16:57.264Z,99513.47
2023-04-17T19:19:25.899Z,99512.69
2023-04-17T19:21:54.518Z,99505.44
2023-04-17T19:24:23.160Z,99506.81
2023-04-17T19:26:51.799Z,99502.78
2023-04-17T19:29:21.799Z,99501.78
2023-04-17T19:31:50.463Z,99502.97
2023-04-17T19:34:19.138Z,99507.81
2023-04-17T19:36:48.024Z,99509.78
2023-04-17T19:39:16.659Z,99514.25
2023-04-17T19:41:50.588Z,99513.22
2023-04-17T19:44:20.775Z,99511.38
2023-04-17T19:46:49.454Z,99515.41
2023-04-17T19:49:18.127Z,99512.00
2023-04-17T19:51:46.903Z,99515.19
2023-04-17T19:54:15.899Z,99516.59
2023-04-17T19:56:44.613Z,99518.56
2023-04-17T19:59:14.088Z,99512.94
2023-04-17T20:01:44.892Z,99510.13
2023-04-17T20:04:13.717Z,99511.91
2023-04-17T20:06:42.478Z,99512.13
2023-04-17T20:09:13.280Z,99511.31
2023-04-17T20:11:43.332Z,99507.91
2023-04-17T20:14:14.670Z,99507.09
2023-04-17T20:16:46.365Z,99506.69
2023-04-17T20:19:17.577Z,99508.84
2023-04-17T20:21:47.000Z,99505.44
2023-04-17T20:24:16.469Z,99507.22
2023-04-17T20:26:45.604Z,99506.84
2023-04-17T20:29:14.577Z,99511.63
2023-04-17T20:31:44.907Z,99507.38
2023-04-17T20:34:13.585Z,99511.59
2023-04-17T20:36:42.198Z,99511.63
2023-04-17T20:39:11.081Z,99510.81
2023-04-17T20:41:39.937Z,99503.38
2023-04-17T20:44:09.434Z,99505.00
2023-04-17T20:46:38.163Z,99509.41
2023-04-17T20:49:08.219Z,99506.38
2023-04-17T20:51:36.913Z,99503.56
2023-04-17T20:54:05.782Z,99501.16
2023-04-17T20:56:34.572Z,99503.13
2023-04-17T20:59:03.204Z,99500.31
2023-04-17T21:01:31.866Z,99499.53
2023-04-17T21:04:00.529Z,99503.38
2023-04-17T21:06:30.683Z,99494.31
2023-04-17T21:08:59.264Z,99489.28
2023-04-17T21:11:27.962Z,99493.28
2023-04-17T21:13:58.380Z,99491.03
2023-04-17T21:16:27.176Z,99493.47
2023-04-17T21:18:55.844Z,99488.25
2023-04-17T21:21:24.427Z,99491.84
2023-04-17T21:23:54.443Z,99493.84
2023-04-17T21:26:23.090Z,99487.44
2023-04-17T21:28:51.673Z,99485.00
2023-04-17T21:31:20.314Z,99492.28
2023-04-17T21:33:48.903Z,99489.88
2023-04-17T21:36:19.289Z,99487.00
2023-04-17T21:38:47.950Z,99489.22
2023-04-17T21:41:17.958Z,99488.19
2023-04-17T21:43:46.643Z,99487.78
2023-04-17T21:46:15.392Z,99488.38
2023-04-17T21:48:44.021Z,99486.53
2023-04-17T21:51:12.639Z,99482.50
2023-04-17T21:53:43.757Z,99485.31
2023-04-17T21:56:12.369Z,99482.88
2023-04-17T21:58:42.302Z,99479.66
2023-04-17T22:01:10.966Z,99470.22
2023-04-17T22:03:39.602Z,99482.06
2023-04-17T22:06:08.542Z,99470.03
2023-04-17T22:08:37.187Z,99467.63
2023-04-17T22:11:06.154Z,99474.03
2023-04-17T22:13:35.092Z,99472.59
2023-04-17T22:16:05.366Z,99472.97
2023-04-17T22:18:34.081Z,99469.56
2023-04-17T22:21:02.887Z,99466.78
2023-04-17T22:23:31.555Z,99460.34
2023-04-17T22:26:00.747Z,99462.94
2023-04-17T22:28:30.785Z,99468.81
2023-04-17T22:30:59.944Z,99460.16
2023-04-17T22:33:29.990Z,99460.34
2023-04-17T22:35:58.624Z,99464.50
2023-04-17T22:38:27.351Z,99464.34
2023-04-17T22:40:56.037Z,99462.34
2023-04-17T22:43:24.680Z,99467.56
2023-04-17T22:45:53.333Z,99461.34
2023-04-17T22:48:24.505Z,99470.97
2023-04-17T22:50:55.774Z,99466.56
2023-04-17T22:53:24.428Z,99471.16
2023-04-17T22:56:01.387Z,99475.78
2023-04-17T22:58:31.981Z,99465.94
2023-04-17T23:01:00.950Z,99462.09
2023-04-17T23:03:29.659Z,99462.09
2023-04-17T23:05:59.679Z,99456.28
2023-04-17T23:08:30.913Z,99464.50
2023-04-17T23:11:00.319Z,99455.84
2023-04-17T23:13:29.216Z,99466.31
2023-04-17T23:15:57.927Z,99464.91
2023-04-17T23:18:26.616Z,99459.69
2023-04-17T23:20:55.258Z,99459.88
2023-04-17T23:23:25.300Z,99450.81
2023-04-17T23:25:53.917Z,99458.25
2023-04-17T23:28:22.622Z,99454.25
2023-04-17T23:30:51.265Z,99460.50
2023-04-17T23:33:19.829Z,99456.84
2023-04-17T23:35:48.421Z,99463.25
2023-04-17T23:38:17.042Z,99464.50
2023-04-17T23:40:46.970Z,99457.13
2023-04-17T23:43:16.126Z,99458.25
2023-04-17T23:45:44.694Z,99453.84
2023-04-17T23:48:13.337Z,99456.41
2023-04-17T23:50:42.242Z,99454.19
2023-04-17T23:53:10.972Z,99450.84
2023-04-17T23:55:39.632Z,99450.47
2023-04-17T23:58:09.660Z,99447.31
